Time;durP1;ratioP1;P1;durP2;ratioP2;P2;SDS_P1;SDS_P2;PMS_P1;PMS_P2;Temp;Humidity;BMP_temperature;BMP_pressure;BME280_temperature;BME280_humidity;BME280_pressure;Samples;Min_cycle;Max_cycle;Signal;HPM_P1;HPM_P2
2022/12/23 00:00:56;;;;;;;195.07;30.83;;;8.30;99.90;;;;;;5020741;28;20177;-69
2022/12/23 00:03:24;;;;;;;261.75;34.42;;;8.20;99.90;;;;;;5046206;28;20037;-69
2022/12/23 00:05:50;;;;;;;348.10;36.63;;;8.20;99.90;;;;;;5025178;28;20540;-69
2022/12/23 00:08:16;;;;;;;397.73;36.88;;;8.20;99.90;;;;;;5052224;28;20037;-69
2022/12/23 00:10:42;;;;;;;292.55;34.47;;;8.30;99.90;;;;;;5047141;28;20387;-69
2022/12/23 00:16:10;;;;;;;220.85;29.25;;;8.40;99.90;;;;;;5057418;28;20408;-69
2022/12/23 00:18:36;;;;;;;246.73;29.60;;;8.30;99.90;;;;;;5060487;28;20041;-69
2022/12/23 00:21:05;;;;;;;259.73;31.42;;;8.40;99.90;;;;;;5062402;28;20116;-69
2022/12/23 00:23:33;;;;;;;256.40;30.98;;;8.40;99.90;;;;;;5063126;28;20036;-69
2022/12/23 00:25:58;;;;;;;355.10;32.47;;;8.50;99.90;;;;;;5047135;28;20033;-70
2022/12/23 00:28:25;;;;;;;393.70;35.15;;;8.50;99.90;;;;;;5041862;28;20102;-69
2022/12/23 00:31:09;;;;;;;409.98;36.05;;;8.40;99.90;;;;;;5047211;28;20043;-69
2022/12/23 00:33:46;;;;;;;518.10;39.15;;;8.50;99.90;;;;;;5063978;28;20049;-69
2022/12/23 00:36:17;;;;;;;515.30;39.25;;;8.40;99.90;;;;;;5044189;28;20658;-69
2022/12/23 00:44:15;;;;;;;589.53;42.72;;;8.40;99.90;;;;;;5051838;28;20494;-68
2022/12/23 00:46:42;;;;;;;682.20;46.30;;;8.40;99.90;;;;;;5048204;28;20148;-68
2022/12/23 00:51:54;;;;;;;768.28;48.00;;;8.50;99.90;;;;;;5048743;28;20068;-70
2022/12/23 00:54:20;;;;;;;894.35;49.95;;;8.50;99.90;;;;;;5044856;28;20049;-70
2022/12/23 00:56:46;;;;;;;689.30;43.33;;;8.50;99.90;;;;;;5049449;28;20509;-70
2022/12/23 00:59:11;;;;;;;731.15;45.58;;;8.40;99.90;;;;;;5043591;28;20048;-70
2022/12/23 01:07:05;;;;;;;623.35;43.28;;;8.50;99.90;;;;;;5065766;28;20136;-70
2022/12/23 01:09:31;;;;;;;554.28;42.80;;;8.50;99.90;;;;;;5045664;28;20056;-71
2022/12/23 01:11:57;;;;;;;522.72;39.35;;;8.60;99.90;;;;;;5048166;28;20037;-70
2022/12/23 01:14:22;;;;;;;382.48;36.45;;;8.40;99.90;;;;;;5043186;28;20052;-70
2022/12/23 01:16:48;;;;;;;429.77;37.03;;;8.50;99.90;;;;;;5054614;28;20071;-70
2022/12/23 01:19:14;;;;;;;366.35;34.05;;;8.50;99.90;;;;;;5049222;28;20344;-71
2022/12/23 01:21:40;;;;;;;363.77;37.00;;;8.50;99.90;;;;;;5045793;28;20036;-69
2022/12/23 01:24:06;;;;;;;347.42;33.85;;;8.50;99.90;;;;;;5042685;28;20395;-70
2022/12/23 01:26:31;;;;;;;247.73;29.73;;;8.60;99.90;;;;;;5046936;28;20041;-70
2022/12/23 01:28:57;;;;;;;313.38;31.52;;;8.50;99.90;;;;;;5030634;28;20037;-69
2022/12/23 01:31:24;;;;;;;268.50;29.42;;;8.50;99.90;;;;;;5056991;28;20474;-69
2022/12/23 01:33:51;;;;;;;339.10;30.50;;;8.60;99.90;;;;;;5043423;28;20795;-70
2022/12/23 01:36:16;;;;;;;256.42;28.45;;;8.60;99.90;;;;;;5042159;28;20087;-69
2022/12/23 01:38:43;;;;;;;329.35;29.20;;;8.50;99.90;;;;;;5046627;28;20029;-69
2022/12/23 01:44:42;;;;;;;307.50;25.00;;;8.50;99.90;;;;;;5046457;28;20403;-69
2022/12/23 01:47:15;;;;;;;259.25;24.58;;;8.60;99.90;;;;;;5038480;28;20037;-70
2022/12/23 01:49:42;;;;;;;204.57;22.17;;;8.50;99.90;;;;;;5043999;28;20033;-70
2022/12/23 01:52:09;;;;;;;212.60;23.20;;;8.50;99.90;;;;;;5058474;28;20048;-69
2022/12/23 01:54:35;;;;;;;262.17;23.77;;;8.60;99.90;;;;;;5041843;28;20041;-69
2022/12/23 01:57:01;;;;;;;193.90;22.70;;;8.40;99.90;;;;;;5043387;28;20143;-70
2022/12/23 02:05:07;;;;;;;246.57;28.00;;;8.40;99.90;;;;;;5008548;28;20497;-69
2022/12/23 02:10:17;;;;;;;178.18;25.50;;;8.50;99.90;;;;;;5044726;28;20146;-69
2022/12/23 02:12:59;;;;;;;136.52;23.20;;;8.40;99.90;;;;;;5041157;28;20127;-70
2022/12/23 02:18:52;;;;;;;169.93;25.48;;;8.30;99.90;;;;;;5037514;28;20068;-69
2022/12/23 02:21:17;;;;;;;131.63;21.63;;;8.30;99.90;;;;;;5042498;28;20029;-70
2022/12/23 02:24:01;;;;;;;138.63;23.55;;;8.30;99.90;;;;;;5025454;28;20094;-69
2022/12/23 02:26:46;;;;;;;155.65;21.35;;;8.20;99.90;;;;;;5041568;28;20044;-69
2022/12/23 02:29:38;;;;;;;151.20;24.35;;;8.20;99.90;;;;;;5044002;28;20415;-68
2022/12/23 02:32:07;;;;;;;148.32;21.52;;;8.20;99.90;;;;;;5044167;28;20390;-69
2022/12/23 02:34:57;;;;;;;120.18;17.42;;;8.10;99.90;;;;;;5043394;28;20041;-68
2022/12/23 02:37:35;;;;;;;184.00;23.00;;;8.20;99.90;;;;;;5042745;28;20056;-69
2022/12/23 02:40:30;;;;;;;125.75;20.55;;;8.20;99.90;;;;;;5041620;28;20146;-69
2022/12/23 02:43:20;;;;;;;109.72;17.98;;;8.20;99.90;;;;;;5041858;28;20076;-69
2022/12/23 02:46:22;;;;;;;101.80;17.80;;;8.20;99.90;;;;;;5043152;28;20033;-68
2022/12/23 02:49:02;;;;;;;79.50;16.10;;;8.10;99.90;;;;;;5032646;28;20555;-68
2022/12/23 02:51:33;;;;;;;72.72;16.30;;;8.10;99.90;;;;;;5043548;28;20053;-68
2022/12/23 02:54:03;;;;;;;65.95;14.90;;;8.20;99.90;;;;;;5044428;28;20174;-67
2022/12/23 02:56:31;;;;;;;35.50;9.80;;;8.10;99.90;;;;;;5047991;28;20045;-66
2022/12/23 02:59:25;;;;;;;62.65;14.57;;;8.10;99.90;;;;;;5046460;28;20064;-66
2022/12/23 03:01:52;;;;;;;63.15;13.93;;;8.00;99.90;;;;;;5057095;28;20049;-67
2022/12/23 03:04:18;;;;;;;71.90;16.13;;;8.00;99.90;;;;;;5041343;28;20045;-67
2022/12/23 03:06:48;;;;;;;74.93;17.00;;;8.00;99.90;;;;;;5026414;28;20044;-67
2022/12/23 03:09:33;;;;;;;72.93;16.45;;;8.10;99.90;;;;;;5039861;28;20036;-68
2022/12/23 03:12:17;;;;;;;80.45;16.85;;;8.00;99.90;;;;;;5039367;28;20106;-68
2022/12/23 03:15:02;;;;;;;84.22;16.98;;;7.90;99.90;;;;;;5043641;28;20487;-67
2022/12/23 03:17:33;;;;;;;92.30;17.45;;;7.90;99.90;;;;;;5040693;28;21223;-67
2022/12/23 03:20:36;;;;;;;82.25;17.17;;;7.90;99.90;;;;;;5043188;28;20037;-68
2022/12/23 03:23:22;;;;;;;91.30;16.92;;;7.80;99.90;;;;;;5049506;28;20052;-67
2022/12/23 03:26:10;;;;;;;95.57;20.15;;;7.90;99.90;;;;;;5041081;28;20410;-68
2022/12/23 03:28:53;;;;;;;120.32;19.58;;;7.70;99.90;;;;;;5045533;28;20048;-68
2022/12/23 03:31:24;;;;;;;142.82;20.90;;;7.70;99.90;;;;;;5059831;28;20102;-68
2022/12/23 03:33:55;;;;;;;188.55;23.13;;;7.70;99.90;;;;;;5042959;28;20037;-68
2022/12/23 03:36:24;;;;;;;223.70;25.17;;;7.80;99.90;;;;;;5039768;28;20052;-68
2022/12/23 03:38:52;;;;;;;253.57;28.48;;;7.70;99.90;;;;;;5058358;28;20112;-68
2022/12/23 03:41:26;;;;;;;192.95;24.02;;;7.70;99.90;;;;;;5045191;28;20410;-68
2022/12/23 03:43:58;;;;;;;300.50;28.50;;;7.70;99.90;;;;;;5056197;28;20048;-68
2022/12/23 03:46:36;;;;;;;;;;;7.80;99.90;;;;;;5041032;28;20108;-68
2022/12/23 03:49:10;;;;;;;201.73;26.33;;;7.80;99.90;;;;;;5055349;28;20385;-69
2022/12/23 03:51:51;;;;;;;225.52;27.15;;;7.70;99.90;;;;;;5036017;28;20072;-68
2022/12/23 03:54:25;;;;;;;205.10;25.98;;;7.70;99.90;;;;;;5040255;28;20662;-68
2022/12/23 03:56:57;;;;;;;299.80;28.65;;;7.70;99.90;;;;;;5037962;28;20041;-68
2022/12/23 03:59:27;;;;;;;246.95;26.65;;;7.80;99.90;;;;;;5043232;28;20179;-68
2022/12/23 04:02:12;;;;;;;336.48;30.80;;;7.80;99.90;;;;;;5022582;28;20038;-69
2022/12/23 04:05:06;;;;;;;218.20;27.90;;;7.60;99.90;;;;;;5044211;28;20041;-68
2022/12/23 04:07:43;;;;;;;377.88;33.22;;;7.80;99.90;;;;;;5042321;28;20041;-68
2022/12/23 04:10:09;;;;;;;236.70;25.63;;;7.70;99.90;;;;;;5041651;28;20048;-68
2022/12/23 04:12:36;;;;;;;395.08;31.38;;;7.70;99.90;;;;;;5022995;28;21205;-68
2022/12/23 04:15:02;;;;;;;480.58;34.08;;;7.80;99.90;;;;;;5026179;28;20063;-68
2022/12/23 04:17:28;;;;;;;334.77;29.20;;;7.60;99.90;;;;;;5044665;28;20033;-67
2022/12/23 04:19:54;;;;;;;429.75;38.67;;;7.70;99.90;;;;;;5047901;28;20458;-67
2022/12/23 04:22:20;;;;;;;303.73;28.98;;;7.70;99.90;;;;;;5061905;28;20569;-67
2022/12/23 04:24:45;;;;;;;270.00;30.67;;;7.70;99.90;;;;;;5047786;28;20037;-67
2022/12/23 04:27:15;;;;;;;274.38;27.33;;;7.60;99.90;;;;;;5044705;28;20045;-67
2022/12/23 04:29:41;;;;;;;254.68;28.77;;;7.60;99.90;;;;;;5044224;28;20049;-67
2022/12/23 04:32:07;;;;;;;254.45;28.27;;;7.60;99.90;;;;;;5044282;28;20045;-67
2022/12/23 04:34:32;;;;;;;196.00;25.73;;;7.60;99.90;;;;;;5040770;28;20062;-67
2022/12/23 04:36:58;;;;;;;250.77;28.13;;;7.70;99.90;;;;;;5025616;28;20430;-67
2022/12/23 04:39:23;;;;;;;205.65;27.98;;;7.70;99.90;;;;;;5047222;28;20120;-67
2022/12/23 04:41:49;;;;;;;182.00;26.92;;;7.60;99.90;;;;;;5047415;28;20025;-67
2022/12/23 04:44:15;;;;;;;178.93;25.00;;;7.50;99.90;;;;;;5045058;28;20044;-67
2022/12/23 04:46:40;;;;;;;198.35;26.60;;;7.40;99.90;;;;;;5028618;28;20036;-67
2022/12/23 04:49:06;;;;;;;169.13;25.92;;;7.50;99.90;;;;;;5044598;28;20068;-67
2022/12/23 04:51:32;;;;;;;276.35;29.02;;;7.40;99.90;;;;;;5044959;28;20120;-67
2022/12/23 04:53:58;;;;;;;304.90;27.50;;;7.40;99.90;;;;;;5045253;28;20098;-67
2022/12/23 04:56:23;;;;;;;493.95;32.53;;;7.40;99.90;;;;;;5059686;28;20055;-67
2022/12/23 04:58:49;;;;;;;596.92;34.70;;;7.30;99.90;;;;;;5039434;28;20471;-67
2022/12/23 05:01:14;;;;;;;829.20;40.50;;;7.30;99.90;;;;;;5056595;28;20558;-67
2022/12/23 05:03:40;;;;;;;706.22;39.38;;;7.20;99.90;;;;;;5043399;28;20040;-67
2022/12/23 05:06:06;;;;;;;590.55;39.53;;;7.20;99.90;;;;;;5047123;28;20056;-67
2022/12/23 05:08:33;;;;;;;595.05;37.40;;;7.10;99.90;;;;;;5046154;28;20566;-67
2022/12/23 05:10:58;;;;;;;776.20;42.65;;;7.10;99.90;;;;;;5043825;28;20040;-67
2022/12/23 05:13:24;;;;;;;805.00;43.38;;;7.00;99.90;;;;;;5044529;28;20089;-67
2022/12/23 05:15:51;;;;;;;828.92;42.95;;;7.20;99.90;;;;;;5045359;28;20033;-67
2022/12/23 05:18:17;;;;;;;840.38;40.50;;;7.00;99.90;;;;;;5042877;28;20480;-68
2022/12/23 05:20:43;;;;;;;696.45;38.08;;;7.10;99.90;;;;;;5043928;28;20049;-68
2022/12/23 05:23:09;;;;;;;535.65;32.58;;;7.10;99.90;;;;;;5057739;28;20194;-67
2022/12/23 05:25:36;;;;;;;594.53;33.78;;;7.10;99.90;;;;;;5042785;28;20554;-67
2022/12/23 05:28:02;;;;;;;547.03;33.00;;;7.00;99.90;;;;;;5047408;28;20041;-67
2022/12/23 05:30:28;;;;;;;716.92;37.55;;;7.10;99.90;;;;;;5044236;28;20044;-68
2022/12/23 05:32:55;;;;;;;479.05;30.73;;;7.00;99.90;;;;;;5038524;28;20391;-68
2022/12/23 05:35:25;;;;;;;476.63;30.45;;;7.10;99.90;;;;;;5045397;28;20041;-67
2022/12/23 05:37:51;;;;;;;691.55;38.10;;;7.10;99.90;;;;;;5044149;28;20040;-68
2022/12/23 05:40:17;;;;;;;729.75;39.03;;;7.10;99.90;;;;;;5062935;28;20048;-67
2022/12/23 05:42:43;;;;;;;769.38;41.53;;;7.10;99.90;;;;;;5027254;28;20376;-68
2022/12/23 05:45:09;;;;;;;524.78;32.38;;;7.00;99.90;;;;;;5041811;28;20082;-67
2022/12/23 05:47:35;;;;;;;629.33;36.13;;;7.00;99.90;;;;;;5045105;28;20049;-67
2022/12/23 05:50:01;;;;;;;565.03;32.08;;;7.00;99.90;;;;;;5044497;28;20033;-67
2022/12/23 05:52:26;;;;;;;653.55;37.28;;;7.10;99.90;;;;;;5048505;28;20397;-67
2022/12/23 05:54:52;;;;;;;677.22;37.38;;;7.00;99.90;;;;;;5040394;28;20044;-67
2022/12/23 05:57:17;;;;;;;419.50;30.98;;;7.00;99.90;;;;;;5033552;28;20460;-67
2022/12/23 05:59:44;;;;;;;784.63;38.58;;;7.00;99.90;;;;;;5050718;28;20051;-67
2022/12/23 06:02:09;;;;;;;774.78;37.50;;;7.10;99.90;;;;;;5045377;28;20118;-67
2022/12/23 06:04:35;;;;;;;630.70;38.45;;;7.10;99.90;;;;;;5046865;28;20044;-67
2022/12/23 06:07:00;;;;;;;545.60;36.33;;;7.00;99.90;;;;;;5046636;28;20198;-67
2022/12/23 06:09:26;;;;;;;574.58;35.97;;;7.00;99.90;;;;;;5048649;28;20045;-67
2022/12/23 06:11:52;;;;;;;882.33;45.45;;;6.90;99.90;;;;;;5061814;28;20524;-67
2022/12/23 06:14:17;;;;;;;631.30;38.42;;;7.10;99.90;;;;;;5068250;28;20043;-67
2022/12/23 06:16:43;;;;;;;930.92;44.47;;;7.00;99.90;;;;;;5070470;28;20029;-67
2022/12/23 06:19:08;;;;;;;950.92;45.08;;;6.90;99.90;;;;;;5069675;28;20435;-67
2022/12/23 06:21:34;;;;;;;1013.25;47.08;;;7.10;99.90;;;;;;5064903;28;20060;-67
2022/12/23 06:23:59;;;;;;;919.78;46.40;;;6.90;99.90;;;;;;5054078;28;20069;-67
2022/12/23 06:26:25;;;;;;;835.08;39.38;;;7.00;99.90;;;;;;5043458;28;20037;-67
2022/12/23 06:28:51;;;;;;;755.53;36.80;;;7.00;99.90;;;;;;5043991;28;20040;-67
2022/12/23 06:31:17;;;;;;;909.28;41.20;;;7.00;99.90;;;;;;5033802;28;20056;-67
2022/12/23 06:33:42;;;;;;;858.60;38.97;;;7.00;99.90;;;;;;5042709;28;20115;-67
2022/12/23 06:36:08;;;;;;;919.50;40.90;;;7.00;99.90;;;;;;5039366;28;20029;-67
2022/12/23 06:38:34;;;;;;;618.45;35.63;;;7.00;99.90;;;;;;5028351;28;20597;-67
2022/12/23 06:40:59;;;;;;;562.72;35.53;;;7.00;99.90;;;;;;5026426;28;20037;-67
2022/12/23 06:43:25;;;;;;;910.00;45.15;;;7.10;99.90;;;;;;5044532;28;20064;-67
2022/12/23 06:45:50;;;;;;;976.85;45.17;;;7.10;99.90;;;;;;5039093;28;20094;-67
2022/12/23 06:48:16;;;;;;;902.22;42.15;;;7.00;99.90;;;;;;5060252;28;20518;-67
2022/12/23 06:50:42;;;;;;;829.85;39.50;;;7.10;99.90;;;;;;5042174;28;20044;-67
2022/12/23 06:53:08;;;;;;;887.92;42.10;;;7.00;99.90;;;;;;5036786;28;20044;-67
2022/12/23 06:55:34;;;;;;;807.15;40.35;;;7.10;99.90;;;;;;5045348;28;20403;-67
2022/12/23 06:57:59;;;;;;;876.15;41.88;;;7.00;99.90;;;;;;5044544;28;20410;-67
2022/12/23 07:00:25;;;;;;;739.08;42.00;;;7.20;99.90;;;;;;5042742;28;20064;-67
2022/12/23 07:02:53;;;;;;;333.63;28.33;;;7.00;99.90;;;;;;5050251;28;20460;-67
2022/12/23 07:05:20;;;;;;;726.35;40.83;;;7.10;99.90;;;;;;5042666;28;20110;-67
2022/12/23 07:07:48;;;;;;;644.28;37.95;;;7.10;99.90;;;;;;5045254;28;20044;-67
2022/12/23 07:10:14;;;;;;;553.75;37.22;;;7.10;99.90;;;;;;5049072;28;20052;-67
2022/12/23 07:12:39;;;;;;;823.25;41.92;;;7.10;99.90;;;;;;5040212;28;20044;-67
2022/12/23 07:15:06;;;;;;;438.00;31.92;;;7.10;99.90;;;;;;5041478;28;20369;-67
2022/12/23 07:17:32;;;;;;;759.40;44.55;;;7.00;99.90;;;;;;5038477;28;20049;-66
2022/12/23 07:19:58;;;;;;;365.90;30.77;;;7.10;99.90;;;;;;5042545;28;20040;-66
2022/12/23 07:22:23;;;;;;;646.53;38.67;;;7.10;99.90;;;;;;5040198;28;20048;-66
2022/12/23 07:24:49;;;;;;;223.63;26.42;;;7.00;99.90;;;;;;5055972;28;20037;-66
2022/12/23 07:27:15;;;;;;;682.40;38.53;;;7.00;99.90;;;;;;5041482;28;20058;-66
2022/12/23 07:29:40;;;;;;;925.30;45.08;;;6.90;99.90;;;;;;5038029;28;20052;-66
2022/12/23 07:32:06;;;;;;;485.13;34.53;;;7.10;99.90;;;;;;5038465;28;20506;-67
2022/12/23 07:34:32;;;;;;;796.13;43.47;;;7.00;99.90;;;;;;5042812;28;20143;-66
2022/12/23 07:36:57;;;;;;;865.30;45.55;;;7.10;99.90;;;;;;5038213;28;20037;-67
2022/12/23 07:39:23;;;;;;;788.28;43.30;;;6.90;99.90;;;;;;5037620;28;20372;-67
2022/12/23 07:41:48;;;;;;;968.78;46.20;;;6.90;99.90;;;;;;5039054;28;20045;-66
2022/12/23 07:44:14;;;;;;;909.25;46.40;;;6.90;99.90;;;;;;5042242;28;20029;-66
2022/12/23 07:46:40;;;;;;;627.15;36.55;;;6.90;99.90;;;;;;5040507;28;20335;-66
2022/12/23 07:49:05;;;;;;;682.67;38.78;;;6.80;99.90;;;;;;5038333;28;20131;-66
2022/12/23 07:51:31;;;;;;;658.22;36.72;;;6.80;99.90;;;;;;5023571;28;20140;-66
2022/12/23 07:53:56;;;;;;;626.40;36.33;;;6.80;99.90;;;;;;5047140;28;20056;-66
2022/12/23 07:56:22;;;;;;;797.10;43.38;;;6.90;99.90;;;;;;5045746;28;20060;-66
2022/12/23 07:58:49;;;;;;;550.65;35.50;;;6.90;99.90;;;;;;5046420;28;20484;-66
2022/12/23 08:01:15;;;;;;;241.82;26.85;;;6.80;99.90;;;;;;5048942;28;20049;-66
2022/12/23 08:03:41;;;;;;;306.10;28.13;;;6.80;99.90;;;;;;5045209;28;20502;-66
2022/12/23 08:06:11;;;;;;;417.38;31.17;;;6.90;99.90;;;;;;5045785;28;20098;-66
2022/12/23 08:08:38;;;;;;;483.55;33.30;;;6.80;99.90;;;;;;5048109;28;20510;-67
2022/12/23 08:11:05;;;;;;;301.40;28.70;;;6.80;99.90;;;;;;5047159;28;20033;-66
2022/12/23 08:13:34;;;;;;;387.02;28.80;;;6.80;99.90;;;;;;5047332;28;20056;-66
2022/12/23 08:16:01;;;;;;;490.95;36.05;;;7.00;99.90;;;;;;5059670;28;20041;-66
2022/12/23 08:18:29;;;;;;;397.60;33.20;;;7.00;99.90;;;;;;5051444;28;20036;-66
2022/12/23 08:21:05;;;;;;;274.15;29.17;;;6.90;99.90;;;;;;5048887;28;20078;-66
2022/12/23 08:23:32;;;;;;;361.92;31.25;;;6.90;99.90;;;;;;5047696;28;20044;-66
2022/12/23 08:26:07;;;;;;;418.45;33.63;;;7.00;99.90;;;;;;5047077;28;20044;-66
2022/12/23 08:28:34;;;;;;;296.02;30.95;;;7.10;99.90;;;;;;5027476;28;20091;-66
2022/12/23 08:31:12;;;;;;;282.83;30.02;;;7.00;99.90;;;;;;5043601;28;20131;-66
2022/12/23 08:33:39;;;;;;;349.75;31.10;;;7.10;99.90;;;;;;5046179;28;20136;-66
2022/12/23 08:36:06;;;;;;;223.45;27.95;;;7.00;99.90;;;;;;5044139;28;20037;-66
2022/12/23 08:38:32;;;;;;;218.63;27.90;;;7.20;99.90;;;;;;5047207;28;20041;-66
2022/12/23 08:40:58;;;;;;;224.95;27.50;;;7.00;99.90;;;;;;5042580;28;20041;-66
2022/12/23 08:43:24;;;;;;;257.73;27.45;;;7.10;99.90;;;;;;5047606;28;20330;-66
2022/12/23 08:45:50;;;;;;;243.57;28.58;;;7.10;99.90;;;;;;5045894;28;20462;-66
2022/12/23 08:48:16;;;;;;;292.95;28.83;;;7.10;99.90;;;;;;5045658;28;20055;-66
2022/12/23 08:50:43;;;;;;;267.35;28.63;;;7.10;99.90;;;;;;5027344;28;20083;-66
2022/12/23 08:53:10;;;;;;;233.40;25.88;;;7.10;99.90;;;;;;5045713;28;20037;-66
2022/12/23 08:55:43;;;;;;;274.83;28.38;;;7.20;99.90;;;;;;5044822;28;20037;-66
2022/12/23 08:58:10;;;;;;;144.52;23.88;;;7.20;99.90;;;;;;5045860;28;20561;-66
2022/12/23 09:00:36;;;;;;;156.38;24.48;;;7.10;99.90;;;;;;5047190;28;20049;-66
2022/12/23 09:03:02;;;;;;;167.85;25.02;;;7.10;99.90;;;;;;5042349;28;20045;-66
2022/12/23 09:05:28;;;;;;;228.63;28.52;;;7.20;99.90;;;;;;5043940;28;20037;-66
2022/12/23 09:07:54;;;;;;;208.85;25.80;;;7.30;99.90;;;;;;5039622;28;20037;-66
2022/12/23 09:10:20;;;;;;;150.20;23.95;;;7.20;99.90;;;;;;5026339;28;20048;-66
2022/12/23 09:12:46;;;;;;;128.02;23.17;;;7.30;99.90;;;;;;5058190;28;20084;-66
2022/12/23 09:15:11;;;;;;;158.63;24.83;;;7.20;99.90;;;;;;5043409;28;20068;-66
2022/12/23 09:17:37;;;;;;;153.23;24.02;;;7.30;99.90;;;;;;5033475;28;20062;-67
2022/12/23 09:20:03;;;;;;;206.90;27.88;;;7.30;99.90;;;;;;5067698;28;20056;-66
2022/12/23 09:22:31;;;;;;;170.40;25.70;;;7.40;99.90;;;;;;5032322;28;20044;-66
2022/12/23 09:24:57;;;;;;;143.80;24.48;;;7.40;99.90;;;;;;5069145;28;20068;-66
2022/12/23 09:27:22;;;;;;;168.65;26.42;;;7.30;99.90;;;;;;5060283;28;20076;-66
2022/12/23 09:29:48;;;;;;;132.13;24.20;;;7.40;99.90;;;;;;5053328;28;20540;-66
2022/12/23 09:32:14;;;;;;;151.85;25.95;;;7.40;99.90;;;;;;5050000;28;20068;-67
2022/12/23 09:34:39;;;;;;;144.77;24.48;;;7.40;99.90;;;;;;5044021;28;20077;-66
2022/12/23 09:37:05;;;;;;;157.40;25.92;;;7.40;99.90;;;;;;5046376;28;20041;-66
2022/12/23 09:39:30;;;;;;;153.70;25.83;;;7.40;99.90;;;;;;5044159;28;20488;-66
2022/12/23 09:42:21;;;;;;;145.88;25.33;;;7.30;99.90;;;;;;5063160;28;20537;-66
2022/12/23 09:45:04;;;;;;;175.00;26.25;;;7.40;99.90;;;;;;5043040;28;20037;-66
2022/12/23 09:47:32;;;;;;;225.38;27.45;;;7.50;99.90;;;;;;5053405;28;20437;-66
2022/12/23 09:50:02;;;;;;;113.97;22.13;;;7.40;99.90;;;;;;5044503;28;20041;-66
2022/12/23 09:52:46;;;;;;;199.05;26.15;;;7.50;99.90;;;;;;5042182;28;20044;-66
2022/12/23 09:55:22;;;;;;;164.27;24.52;;;7.50;99.90;;;;;;5045098;28;20475;-66
2022/12/23 09:57:59;;;;;;;106.43;21.40;;;7.60;99.90;;;;;;5043199;28;20044;-66
2022/12/23 10:00:30;;;;;;;114.03;22.73;;;7.50;99.90;;;;;;5044232;28;20041;-66
2022/12/23 10:03:14;;;;;;;149.60;23.25;;;7.60;99.90;;;;;;5049897;28;20037;-66
2022/12/23 10:06:13;;;;;;;164.38;23.75;;;7.70;99.90;;;;;;5042620;28;20060;-66
2022/12/23 10:08:43;;;;;;;122.70;20.70;;;7.60;99.90;;;;;;4996985;28;20053;-66
2022/12/23 10:11:20;;;;;;;119.53;20.75;;;7.60;99.90;;;;;;5042896;28;20055;-66
2022/12/23 10:13:50;;;;;;;107.50;20.27;;;7.60;99.90;;;;;;5043503;28;20432;-66
2022/12/23 10:16:26;;;;;;;102.88;20.08;;;7.60;99.90;;;;;;5046175;28;20403;-66
2022/12/23 10:19:11;;;;;;;88.30;19.35;;;7.80;99.90;;;;;;5026868;28;20041;-66
2022/12/23 10:21:52;;;;;;;91.13;19.42;;;7.70;99.90;;;;;;5042174;28;20083;-66
2022/12/23 10:24:24;;;;;;;86.25;17.85;;;7.70;99.90;;;;;;5043552;28;20685;-66
2022/12/23 10:27:22;;;;;;;89.65;19.17;;;7.70;99.90;;;;;;5042391;28;20437;-66
2022/12/23 10:29:48;;;;;;;76.65;18.58;;;7.80;99.90;;;;;;5052950;28;20049;-66
2022/12/23 10:32:32;;;;;;;74.57;19.08;;;7.80;99.90;;;;;;5059256;28;20403;-66
2022/12/23 10:35:14;;;;;;;81.28;18.70;;;7.80;99.90;;;;;;5042765;28;20108;-66
2022/12/23 10:37:56;;;;;;;;;;;7.90;99.90;;;;;;5043911;28;20045;-66
2022/12/23 10:40:28;;;;;;;87.00;18.48;;;8.00;99.90;;;;;;5041778;28;19971;-66
2022/12/23 10:43:20;;;;;;;82.45;17.33;;;8.00;99.90;;;;;;5056285;28;20037;-67
2022/12/23 10:46:23;;;;;;;64.47;18.47;;;8.00;99.90;;;;;;5013315;28;20391;-67
2022/12/23 10:49:01;;;;;;;76.88;17.17;;;8.00;99.90;;;;;;5041483;28;20106;-67
2022/12/23 10:51:52;;;;;;;90.20;18.60;;;8.00;99.90;;;;;;5041358;28;20048;-67
2022/12/23 10:54:33;;;;;;;76.85;16.48;;;8.10;99.90;;;;;;5043749;28;20392;-67
2022/12/23 10:57:00;;;;;;;66.72;17.42;;;8.10;99.90;;;;;;5057160;28;20080;-68
2022/12/23 10:59:29;;;;;;;76.88;16.85;;;8.10;99.90;;;;;;5041371;28;20033;-68
2022/12/23 11:02:04;;;;;;;67.97;18.08;;;8.10;99.90;;;;;;5025343;28;20040;-67
2022/12/23 11:04:36;;;;;;;68.35;17.25;;;8.00;99.90;;;;;;5042161;28;20183;-67
2022/12/23 11:07:02;;;;;;;69.55;16.90;;;8.00;99.90;;;;;;5040962;28;20043;-67
2022/12/23 11:09:45;;;;;;;66.13;16.38;;;8.10;99.90;;;;;;5040249;28;20087;-67
2022/12/23 11:12:11;;;;;;;;;;;8.10;99.90;;;;;;5042340;28;20082;-67
2022/12/23 11:14:42;;;;;;;78.75;15.13;;;8.10;99.90;;;;;;5041876;28;20248;-67
2022/12/23 11:17:26;;;;;;;90.63;16.90;;;8.10;99.90;;;;;;5043453;28;20052;-68
2022/12/23 11:20:15;;;;;;;72.22;16.27;;;8.10;99.90;;;;;;5043167;28;20040;-68
2022/12/23 11:22:52;;;;;;;68.18;16.15;;;8.20;99.90;;;;;;5057761;28;20529;-67
2022/12/23 11:25:37;;;;;;;71.47;16.48;;;8.10;99.90;;;;;;5055714;28;20073;-68
2022/12/23 11:28:09;;;;;;;72.57;17.05;;;8.20;99.90;;;;;;5049616;28;20029;-68
2022/12/23 11:30:53;;;;;;;82.63;16.53;;;8.20;99.90;;;;;;5042347;28;20128;-68
2022/12/23 11:33:45;;;;;;;101.95;18.92;;;8.20;99.90;;;;;;5055634;28;20075;-68
2022/12/23 11:36:22;;;;;;;88.10;18.05;;;8.20;99.90;;;;;;5039182;28;20376;-68
2022/12/23 11:39:17;;;;;;;85.45;18.02;;;8.10;99.90;;;;;;5018302;28;20072;-68
2022/12/23 11:41:48;;;;;;;92.82;17.20;;;8.10;99.90;;;;;;5038115;28;20094;-68
2022/12/23 11:44:29;;;;;;;79.65;17.15;;;8.20;99.90;;;;;;5043781;28;20041;-68
2022/12/23 11:46:55;;;;;;;94.75;18.25;;;8.10;99.90;;;;;;5039313;28;20033;-67
2022/12/23 11:49:24;;;;;;;89.25;18.30;;;8.20;99.90;;;;;;5045249;28;20072;-67
2022/12/23 11:52:11;;;;;;;92.65;17.92;;;8.30;99.90;;;;;;5038726;28;20114;-68
2022/12/23 11:54:38;;;;;;;95.82;17.52;;;8.20;99.90;;;;;;5042551;28;20045;-68
2022/12/23 11:57:07;;;;;;;98.65;18.17;;;8.20;99.90;;;;;;5025630;28;20063;-68
2022/12/23 11:59:47;;;;;;;94.38;19.30;;;8.10;99.90;;;;;;5041083;28;20069;-68
2022/12/23 12:02:25;;;;;;;86.32;18.88;;;8.10;99.90;;;;;;5026886;28;20029;-68
2022/12/23 12:04:59;;;;;;;105.65;19.42;;;8.10;99.90;;;;;;5043676;28;20076;-68
2022/12/23 12:07:25;;;;;;;107.45;19.20;;;8.20;99.90;;;;;;5048276;28;20033;-68
2022/12/23 12:09:55;;;;;;;118.68;19.90;;;8.20;99.90;;;;;;5046853;28;20041;-68
2022/12/23 12:12:21;;;;;;;99.57;19.13;;;8.20;99.90;;;;;;5039541;28;20049;-68
2022/12/23 12:14:56;;;;;;;116.43;19.63;;;8.20;99.90;;;;;;5025986;28;20507;-68
2022/12/23 12:17:45;;;;;;;121.43;19.33;;;8.10;99.90;;;;;;5044735;28;20498;-68
2022/12/23 12:20:25;;;;;;;112.50;20.55;;;8.20;99.90;;;;;;5043292;28;21307;-69
2022/12/23 12:22:58;;;;;;;111.88;19.95;;;8.20;99.90;;;;;;5041745;28;20421;-67
2022/12/23 12:25:39;;;;;;;121.00;20.27;;;8.20;99.90;;;;;;5044483;28;20064;-68
2022/12/23 12:28:15;;;;;;;124.78;19.98;;;8.20;99.90;;;;;;5045944;28;20043;-68
2022/12/23 12:30:52;;;;;;;104.97;18.88;;;8.20;99.90;;;;;;5040235;28;20511;-67
2022/12/23 12:33:33;;;;;;;106.70;19.38;;;8.20;99.90;;;;;;5042805;28;20037;-68
2022/12/23 12:36:12;;;;;;;100.93;19.15;;;8.20;99.90;;;;;;5042583;28;20494;-68
2022/12/23 12:38:39;;;;;;;110.00;19.85;;;8.10;99.90;;;;;;5050652;28;20116;-68
2022/12/23 12:41:14;;;;;;;94.53;18.48;;;8.20;99.90;;;;;;5044231;28;20315;-68
2022/12/23 12:44:04;;;;;;;95.65;18.35;;;8.10;99.90;;;;;;5046008;28;20040;-68
2022/12/23 12:46:36;;;;;;;93.15;17.15;;;8.10;99.90;;;;;;5044137;28;20055;-68
2022/12/23 12:49:23;;;;;;;104.38;18.13;;;8.20;99.90;;;;;;5028249;28;20048;-68
2022/12/23 12:52:11;;;;;;;90.18;17.60;;;8.10;99.90;;;;;;5055112;28;20047;-69
2022/12/23 12:54:46;;;;;;;84.30;17.40;;;8.10;99.90;;;;;;5042173;28;20040;-68
2022/12/23 12:57:15;;;;;;;96.63;16.98;;;8.10;99.90;;;;;;5025125;28;20438;-68
2022/12/23 12:59:42;;;;;;;82.63;15.85;;;8.20;99.90;;;;;;5043776;28;20052;-68
2022/12/23 13:03:05;;;;;;;101.82;17.27;;;8.10;99.90;;;;;;5046850;28;20041;-68
2022/12/23 13:05:42;;;;;;;86.50;17.50;;;8.20;99.90;;;;;;5008899;28;20045;-68
2022/12/23 13:08:11;;;;;;;79.53;17.15;;;8.20;99.90;;;;;;5015195;28;20304;-68
2022/12/23 13:10:43;;;;;;;79.93;16.98;;;8.20;99.90;;;;;;5027467;28;20052;-69
2022/12/23 13:13:17;;;;;;;84.15;17.27;;;8.30;99.90;;;;;;5027089;28;20054;-68
2022/12/23 13:16:28;;;;;;;108.03;17.08;;;8.10;99.90;;;;;;5042893;28;20523;-67
2022/12/23 13:19:03;;;;;;;97.18;17.40;;;8.20;99.90;;;;;;5033207;28;20052;-67
2022/12/23 13:21:47;;;;;;;86.88;15.65;;;8.10;99.90;;;;;;5041875;28;20168;-68
2022/12/23 13:24:46;;;;;;;72.85;15.90;;;8.20;99.90;;;;;;5061132;28;20033;-67